AUL2132 URWW-UWKD
Flight info
| Callsign | AUL2132 |
|---|---|
| Flight time | 1h 36m |
| Altitude | 37000 |
| Route | RODUN R807 UROBO P135 DAFOS T789 SONUM |
| Aircraft | A20N/M-SDE2E3FGHIRWXY/LB1 |
Departure
| Time | 2026-05-07 18:21 |
|---|---|
| Airport | Volgograd International Airport (URWW) |
Arrival
| Time | 2026-05-07 19:57 |
|---|---|
| Airport | Kazan International Airport (UWKD) |
| Time | Latitude | Longitude | Altitude | Speed | Heading |
|---|---|---|---|---|---|
| 2026-05-07 17:59 | 48.79027 | 44.35345 | 471 ft | 0 kts | 339° |
| 2026-05-07 18:12 | 48.79023 | 44.35347 | 471 ft | 2 kts | 339° |
| 2026-05-07 18:12 | 48.79008 | 44.35355 | 471 ft | 2 kts | 339° |
| 2026-05-07 18:12 | 48.78995 | 44.35364 | 471 ft | 2 kts | 314° |
| 2026-05-07 18:12 | 48.78988 | 44.35384 | 471 ft | 2 kts | 274° |
| 2026-05-07 18:13 | 48.78991 | 44.35405 | 470 ft | 1 kts | 241° |
| 2026-05-07 18:13 | 48.78992 | 44.35410 | 470 ft | 0 kts | 243° |
| 2026-05-07 18:15 | 48.78992 | 44.35409 | 470 ft | 0 kts | 243° |
| 2026-05-07 18:15 | 48.78988 | 44.35397 | 470 ft | 2 kts | 245° |
| 2026-05-07 18:16 | 48.78978 | 44.35353 | 471 ft | 6 kts | 249° |
| 2026-05-07 18:16 | 48.78958 | 44.35273 | 471 ft | 9 kts | 248° |
| 2026-05-07 18:16 | 48.78930 | 44.35165 | 471 ft | 11 kts | 249° |
| 2026-05-07 18:16 | 48.78860 | 44.35127 | 469 ft | 13 kts | 161° |
| 2026-05-07 18:17 | 48.78767 | 44.35171 | 468 ft | 14 kts | 162° |
| 2026-05-07 18:17 | 48.78699 | 44.35205 | 468 ft | 5 kts | 162° |
| 2026-05-07 18:17 | 48.78693 | 44.35208 | 468 ft | 0 kts | 161° |
| 2026-05-07 18:18 | 48.78686 | 44.35211 | 468 ft | 2 kts | 161° |
| 2026-05-07 18:18 | 48.78659 | 44.35225 | 468 ft | 6 kts | 161° |
| 2026-05-07 18:18 | 48.78605 | 44.35250 | 468 ft | 9 kts | 168° |
| 2026-05-07 18:18 | 48.78549 | 44.35207 | 467 ft | 10 kts | 239° |
| 2026-05-07 18:19 | 48.78534 | 44.35162 | 466 ft | 0 kts | 244° |
| 2026-05-07 18:19 | 48.78534 | 44.35160 | 466 ft | 0 kts | 244° |
| 2026-05-07 18:19 | 48.78533 | 44.35159 | 466 ft | 0 kts | 244° |
| 2026-05-07 18:20 | 48.78526 | 44.35135 | 466 ft | 4 kts | 244° |
| 2026-05-07 18:20 | 48.78492 | 44.35027 | 464 ft | 36 kts | 244° |
| 2026-05-07 18:20 | 48.78276 | 44.34352 | 454 ft | 105 kts | 244° |
| 2026-05-07 18:20 | 48.77871 | 44.33070 | 427 ft | 162 kts | 245° |
| 2026-05-07 18:21 | 48.77355 | 44.31440 | 769 ft | 178 kts | 244° |
| 2026-05-07 18:21 | 48.76807 | 44.29769 | 1446 ft | 178 kts | 244° |
| 2026-05-07 18:21 | 48.76244 | 44.28114 | 2121 ft | 180 kts | 246° |
| 2026-05-07 18:21 | 48.75688 | 44.26393 | 2612 ft | 189 kts | 248° |
| 2026-05-07 18:22 | 48.75106 | 44.24508 | 2982 ft | 206 kts | 248° |
| 2026-05-07 18:22 | 48.74714 | 44.23137 | 3177 ft | 221 kts | 257° |
| 2026-05-07 18:22 | 48.74871 | 44.20055 | 3722 ft | 232 kts | 303° |
| 2026-05-07 18:22 | 48.75996 | 44.18307 | 4163 ft | 242 kts | 335° |
| 2026-05-07 18:23 | 48.77644 | 44.17790 | 4649 ft | 253 kts | 8° |
| 2026-05-07 18:23 | 48.79263 | 44.18831 | 5393 ft | 259 kts | 36° |
| 2026-05-07 18:23 | 48.80684 | 44.20458 | 6220 ft | 261 kts | 34° |
| 2026-05-07 18:23 | 48.82169 | 44.22031 | 7035 ft | 264 kts | 34° |
| 2026-05-07 18:24 | 48.83689 | 44.23622 | 7875 ft | 267 kts | 34° |
| 2026-05-07 18:24 | 48.85204 | 44.25212 | 8690 ft | 269 kts | 34° |
| 2026-05-07 18:24 | 48.86746 | 44.26838 | 9530 ft | 271 kts | 34° |
| 2026-05-07 18:24 | 48.88300 | 44.28482 | 10332 ft | 274 kts | 34° |
| 2026-05-07 18:25 | 48.89877 | 44.30155 | 10834 ft | 287 kts | 34° |
| 2026-05-07 18:25 | 48.91537 | 44.31919 | 11385 ft | 297 kts | 34° |
| 2026-05-07 18:25 | 48.93240 | 44.33731 | 12148 ft | 300 kts | 34° |
| 2026-05-07 18:25 | 48.94944 | 44.35549 | 12807 ft | 306 kts | 34° |
| 2026-05-07 18:26 | 48.96704 | 44.37427 | 13342 ft | 316 kts | 34° |
| 2026-05-07 18:26 | 48.98517 | 44.39365 | 14038 ft | 319 kts | 34° |
| 2026-05-07 18:26 | 49.00326 | 44.41302 | 14740 ft | 322 kts | 34° |
| 2026-05-07 18:26 | 49.02151 | 44.43255 | 15446 ft | 324 kts | 34° |
| 2026-05-07 18:27 | 49.04008 | 44.45245 | 16116 ft | 327 kts | 34° |
| 2026-05-07 18:27 | 49.05863 | 44.47236 | 16764 ft | 330 kts | 34° |
| 2026-05-07 18:27 | 49.07741 | 44.49253 | 17387 ft | 334 kts | 34° |
| 2026-05-07 18:27 | 49.09644 | 44.51299 | 17986 ft | 337 kts | 34° |
| 2026-05-07 18:28 | 49.11579 | 44.53381 | 18594 ft | 341 kts | 34° |
| 2026-05-07 18:28 | 49.13537 | 44.55490 | 19196 ft | 344 kts | 34° |
| 2026-05-07 18:28 | 49.15499 | 44.57607 | 19798 ft | 347 kts | 34° |
| 2026-05-07 18:28 | 49.17464 | 44.59726 | 20379 ft | 349 kts | 34° |
| 2026-05-07 18:29 | 49.19450 | 44.61872 | 20937 ft | 352 kts | 34° |
| 2026-05-07 18:29 | 49.21465 | 44.64050 | 21495 ft | 355 kts | 34° |
| 2026-05-07 18:29 | 49.23471 | 44.66220 | 22014 ft | 359 kts | 35° |
| 2026-05-07 18:29 | 49.25525 | 44.68446 | 22553 ft | 361 kts | 35° |
| 2026-05-07 18:30 | 49.27571 | 44.70664 | 23069 ft | 364 kts | 35° |
| 2026-05-07 18:30 | 49.29652 | 44.72924 | 23579 ft | 367 kts | 35° |
| 2026-05-07 18:30 | 49.31712 | 44.75166 | 24087 ft | 369 kts | 35° |
| 2026-05-07 18:30 | 49.33830 | 44.77473 | 24575 ft | 372 kts | 35° |
| 2026-05-07 18:31 | 49.35939 | 44.79770 | 25050 ft | 374 kts | 34° |
| 2026-05-07 18:31 | 49.38045 | 44.82068 | 25519 ft | 377 kts | 34° |
| 2026-05-07 18:31 | 49.40183 | 44.84400 | 25947 ft | 380 kts | 34° |
| 2026-05-07 18:31 | 49.42347 | 44.86766 | 26368 ft | 383 kts | 34° |
| 2026-05-07 18:32 | 49.44513 | 44.89136 | 26787 ft | 385 kts | 34° |
| 2026-05-07 18:32 | 49.46712 | 44.91546 | 27205 ft | 387 kts | 34° |
| 2026-05-07 18:32 | 49.48886 | 44.93928 | 27588 ft | 390 kts | 34° |
| 2026-05-07 18:32 | 49.51105 | 44.96366 | 27962 ft | 393 kts | 34° |
| 2026-05-07 18:33 | 49.53320 | 44.98804 | 28347 ft | 395 kts | 34° |
| 2026-05-07 18:33 | 49.55565 | 45.01275 | 28716 ft | 397 kts | 34° |
| 2026-05-07 18:33 | 49.57818 | 45.03759 | 29062 ft | 400 kts | 34° |
| 2026-05-07 18:33 | 49.60083 | 45.06258 | 29406 ft | 402 kts | 34° |
| 2026-05-07 18:34 | 49.62358 | 45.08741 | 29754 ft | 404 kts | 32° |
| 2026-05-07 18:34 | 49.64726 | 45.11019 | 30089 ft | 405 kts | 28° |
| 2026-05-07 18:34 | 49.67244 | 45.13069 | 30444 ft | 406 kts | 24° |
| 2026-05-07 18:34 | 49.69824 | 45.14813 | 30889 ft | 404 kts | 20° |
| 2026-05-07 18:35 | 49.72447 | 45.16254 | 31335 ft | 402 kts | 16° |
| 2026-05-07 18:35 | 49.75125 | 45.17482 | 31746 ft | 401 kts | 15° |
| 2026-05-07 18:35 | 49.77775 | 45.18644 | 32158 ft | 400 kts | 14° |
| 2026-05-07 18:35 | 49.80464 | 45.19817 | 32545 ft | 398 kts | 14° |
| 2026-05-07 18:36 | 49.83118 | 45.20976 | 32893 ft | 398 kts | 14° |
| 2026-05-07 18:36 | 49.85762 | 45.22133 | 33218 ft | 398 kts | 14° |
| 2026-05-07 18:36 | 49.88436 | 45.23307 | 33531 ft | 398 kts | 14° |
| 2026-05-07 18:36 | 49.91087 | 45.24472 | 33868 ft | 397 kts | 14° |
| 2026-05-07 18:37 | 49.93729 | 45.25636 | 34184 ft | 396 kts | 14° |
| 2026-05-07 18:37 | 49.96346 | 45.26790 | 34501 ft | 395 kts | 14° |
| 2026-05-07 18:37 | 49.99005 | 45.27964 | 34775 ft | 394 kts | 14° |
| 2026-05-07 18:37 | 50.01497 | 45.29034 | 34964 ft | 394 kts | 12° |
| 2026-05-07 18:38 | 50.04150 | 45.29997 | 35127 ft | 394 kts | 11° |
| 2026-05-07 18:38 | 50.06844 | 45.30913 | 35265 ft | 396 kts | 11° |
| 2026-05-07 18:38 | 50.09542 | 45.31823 | 35399 ft | 398 kts | 11° |
| 2026-05-07 18:38 | 50.12230 | 45.32730 | 35533 ft | 399 kts | 11° |
| 2026-05-07 18:39 | 50.14957 | 45.33654 | 35688 ft | 400 kts | 11° |
| 2026-05-07 18:39 | 50.17679 | 45.34578 | 35839 ft | 401 kts | 11° |
| 2026-05-07 18:39 | 50.20425 | 45.35513 | 35995 ft | 402 kts | 11° |
| 2026-05-07 18:39 | 50.23153 | 45.36442 | 36118 ft | 403 kts | 11° |
| 2026-05-07 18:40 | 50.25903 | 45.37382 | 36250 ft | 404 kts | 11° |
| 2026-05-07 18:40 | 50.28635 | 45.38317 | 36380 ft | 405 kts | 11° |
| 2026-05-07 18:40 | 50.31430 | 45.39275 | 36529 ft | 406 kts | 11° |
| 2026-05-07 18:40 | 50.34201 | 45.40226 | 36663 ft | 407 kts | 11° |
| 2026-05-07 18:41 | 50.36950 | 45.41170 | 36783 ft | 408 kts | 11° |
| 2026-05-07 18:41 | 50.39735 | 45.42127 | 36902 ft | 409 kts | 11° |
| 2026-05-07 18:41 | 50.42479 | 45.43072 | 36941 ft | 410 kts | 11° |
| 2026-05-07 18:42 | 50.48059 | 45.44997 | 36950 ft | 410 kts | 11° |
| 2026-05-07 18:42 | 50.53634 | 45.46926 | 36952 ft | 410 kts | 11° |
| 2026-05-07 18:43 | 50.59181 | 45.48849 | 36951 ft | 410 kts | 11° |
| 2026-05-07 18:43 | 50.64750 | 45.50785 | 36954 ft | 411 kts | 11° |
| 2026-05-07 18:44 | 50.70295 | 45.52719 | 36955 ft | 411 kts | 11° |
| 2026-05-07 18:44 | 50.75915 | 45.54683 | 36951 ft | 411 kts | 11° |
| 2026-05-07 18:45 | 50.81480 | 45.56643 | 36948 ft | 411 kts | 12° |
| 2026-05-07 18:45 | 50.87049 | 45.58640 | 36948 ft | 411 kts | 12° |
| 2026-05-07 18:46 | 50.92613 | 45.60643 | 36954 ft | 411 kts | 12° |
| 2026-05-07 18:46 | 50.98181 | 45.62655 | 36955 ft | 411 kts | 12° |
| 2026-05-07 18:47 | 51.03651 | 45.65228 | 36951 ft | 412 kts | 19° |
| 2026-05-07 18:47 | 51.08961 | 45.68757 | 36960 ft | 413 kts | 24° |
| 2026-05-07 18:48 | 51.14177 | 45.72665 | 36964 ft | 413 kts | 24° |
| 2026-05-07 18:48 | 51.19375 | 45.76581 | 36958 ft | 413 kts | 24° |
| 2026-05-07 18:49 | 51.24579 | 45.80505 | 36951 ft | 413 kts | 24° |
| 2026-05-07 18:49 | 51.29751 | 45.84412 | 36972 ft | 413 kts | 24° |
| 2026-05-07 18:50 | 51.34959 | 45.88355 | 36958 ft | 413 kts | 24° |
| 2026-05-07 18:50 | 51.40157 | 45.92300 | 36958 ft | 413 kts | 24° |
| 2026-05-07 18:51 | 51.45318 | 45.96227 | 36960 ft | 414 kts | 24° |
| 2026-05-07 18:51 | 51.50547 | 46.00219 | 36957 ft | 414 kts | 24° |
| 2026-05-07 18:52 | 51.55709 | 46.04168 | 36950 ft | 413 kts | 24° |
| 2026-05-07 18:52 | 51.60875 | 46.08323 | 36953 ft | 414 kts | 25° |
| 2026-05-07 18:53 | 51.65982 | 46.12556 | 36953 ft | 414 kts | 25° |
| 2026-05-07 18:53 | 51.71114 | 46.16805 | 36939 ft | 415 kts | 25° |
| 2026-05-07 18:54 | 51.76246 | 46.21057 | 36946 ft | 415 kts | 25° |
| 2026-05-07 18:54 | 51.81372 | 46.25309 | 36943 ft | 416 kts | 25° |
| 2026-05-07 18:55 | 51.86496 | 46.29563 | 36949 ft | 415 kts | 25° |
| 2026-05-07 18:55 | 51.91604 | 46.33819 | 36950 ft | 415 kts | 25° |
| 2026-05-07 18:56 | 51.96724 | 46.38102 | 36944 ft | 416 kts | 25° |
| 2026-05-07 18:56 | 52.01888 | 46.42430 | 36945 ft | 416 kts | 25° |
| 2026-05-07 18:57 | 52.07003 | 46.46720 | 36944 ft | 416 kts | 25° |
| 2026-05-07 18:57 | 52.12138 | 46.51047 | 36966 ft | 417 kts | 25° |
| 2026-05-07 18:58 | 52.17300 | 46.55411 | 36959 ft | 417 kts | 25° |
| 2026-05-07 18:58 | 52.22420 | 46.59739 | 36949 ft | 417 kts | 25° |
| 2026-05-07 18:59 | 52.27562 | 46.64103 | 36961 ft | 418 kts | 25° |
| 2026-05-07 18:59 | 52.32710 | 46.68487 | 36930 ft | 418 kts | 26° |
| 2026-05-07 19:00 | 52.37873 | 46.72895 | 36934 ft | 419 kts | 26° |
| 2026-05-07 19:00 | 52.42995 | 46.77285 | 36953 ft | 419 kts | 26° |
| 2026-05-07 19:01 | 52.48147 | 46.81710 | 36950 ft | 419 kts | 26° |
| 2026-05-07 19:01 | 52.53320 | 46.86157 | 36961 ft | 419 kts | 26° |
| 2026-05-07 19:02 | 52.58486 | 46.90608 | 36946 ft | 420 kts | 26° |
| 2026-05-07 19:02 | 52.63622 | 46.95050 | 36948 ft | 420 kts | 26° |
| 2026-05-07 19:03 | 52.68818 | 46.99558 | 36949 ft | 421 kts | 26° |
| 2026-05-07 19:03 | 52.73998 | 47.04065 | 36948 ft | 422 kts | 26° |
| 2026-05-07 19:04 | 52.79180 | 47.08587 | 36950 ft | 423 kts | 26° |
| 2026-05-07 19:04 | 52.84345 | 47.13102 | 36938 ft | 423 kts | 26° |
| 2026-05-07 19:05 | 52.89543 | 47.17655 | 36942 ft | 423 kts | 26° |
| 2026-05-07 19:05 | 52.94706 | 47.22196 | 36941 ft | 423 kts | 26° |
| 2026-05-07 19:06 | 52.99915 | 47.26790 | 36943 ft | 424 kts | 26° |
| 2026-05-07 19:06 | 53.07698 | 47.33683 | 36942 ft | 425 kts | 26° |
| 2026-05-07 19:07 | 53.12888 | 47.38296 | 36945 ft | 425 kts | 26° |
| 2026-05-07 19:07 | 53.18103 | 47.42942 | 36946 ft | 425 kts | 26° |
| 2026-05-07 19:08 | 53.23280 | 47.47556 | 36944 ft | 424 kts | 26° |
| 2026-05-07 19:08 | 53.28486 | 47.52213 | 36940 ft | 425 kts | 26° |
| 2026-05-07 19:09 | 53.33673 | 47.56873 | 36946 ft | 425 kts | 26° |
| 2026-05-07 19:09 | 53.38868 | 47.61553 | 36950 ft | 425 kts | 26° |
| 2026-05-07 19:10 | 53.44078 | 47.66260 | 36954 ft | 425 kts | 27° |
| 2026-05-07 19:10 | 53.49370 | 47.70634 | 36957 ft | 424 kts | 21° |
| 2026-05-07 19:11 | 53.54816 | 47.74294 | 36957 ft | 423 kts | 20° |
| 2026-05-07 19:11 | 53.60271 | 47.77884 | 36956 ft | 423 kts | 20° |
| 2026-05-07 19:12 | 53.65739 | 47.81508 | 36955 ft | 423 kts | 20° |
| 2026-05-07 19:12 | 53.71318 | 47.84813 | 36950 ft | 423 kts | 15° |
| 2026-05-07 19:13 | 53.76998 | 47.87244 | 36953 ft | 423 kts | 12° |
| 2026-05-07 19:13 | 53.82650 | 47.89865 | 36955 ft | 424 kts | 17° |
| 2026-05-07 19:14 | 53.88113 | 47.93527 | 36936 ft | 425 kts | 22° |
| 2026-05-07 19:14 | 53.90827 | 47.95562 | 36643 ft | 424 kts | 22° |
| 2026-05-07 19:14 | 53.93523 | 47.97602 | 36379 ft | 421 kts | 23° |
| 2026-05-07 19:15 | 53.96160 | 47.99602 | 36160 ft | 418 kts | 22° |
| 2026-05-07 19:15 | 53.98797 | 48.01599 | 35940 ft | 416 kts | 23° |
| 2026-05-07 19:15 | 54.01430 | 48.03593 | 35722 ft | 415 kts | 23° |
| 2026-05-07 19:15 | 54.04048 | 48.05578 | 35501 ft | 415 kts | 23° |
| 2026-05-07 19:16 | 54.06661 | 48.07558 | 35281 ft | 415 kts | 23° |
| 2026-05-07 19:16 | 54.09295 | 48.09558 | 35068 ft | 415 kts | 23° |
| 2026-05-07 19:16 | 54.11943 | 48.11574 | 34851 ft | 415 kts | 23° |
| 2026-05-07 19:16 | 54.14592 | 48.13591 | 34587 ft | 416 kts | 23° |
| 2026-05-07 19:17 | 54.17211 | 48.15591 | 34194 ft | 416 kts | 23° |
| 2026-05-07 19:17 | 54.19883 | 48.17634 | 33675 ft | 417 kts | 23° |
| 2026-05-07 19:17 | 54.22501 | 48.19637 | 33096 ft | 417 kts | 23° |
| 2026-05-07 19:17 | 54.25114 | 48.21652 | 32473 ft | 418 kts | 24° |
| 2026-05-07 19:18 | 54.27706 | 48.23886 | 31833 ft | 420 kts | 27° |
| 2026-05-07 19:18 | 54.30269 | 48.26291 | 31168 ft | 421 kts | 28° |
| 2026-05-07 19:18 | 54.32843 | 48.28754 | 30439 ft | 424 kts | 28° |
| 2026-05-07 19:18 | 54.35393 | 48.31211 | 29787 ft | 424 kts | 28° |
| 2026-05-07 19:19 | 54.37933 | 48.33658 | 29353 ft | 419 kts | 28° |
| 2026-05-07 19:19 | 54.40465 | 48.36100 | 28901 ft | 415 kts | 28° |
| 2026-05-07 19:19 | 54.42971 | 48.38516 | 28465 ft | 411 kts | 28° |
| 2026-05-07 19:19 | 54.45419 | 48.40879 | 28017 ft | 407 kts | 28° |
| 2026-05-07 19:20 | 54.47883 | 48.43260 | 27563 ft | 404 kts | 28° |
| 2026-05-07 19:20 | 54.50321 | 48.45618 | 27103 ft | 400 kts | 28° |
| 2026-05-07 19:20 | 54.52731 | 48.47954 | 26690 ft | 396 kts | 28° |
| 2026-05-07 19:20 | 54.55106 | 48.50257 | 26266 ft | 393 kts | 28° |
| 2026-05-07 19:21 | 54.57448 | 48.52532 | 25853 ft | 389 kts | 28° |
| 2026-05-07 19:21 | 54.59788 | 48.54807 | 25419 ft | 386 kts | 28° |
| 2026-05-07 19:21 | 54.62139 | 48.57097 | 24977 ft | 383 kts | 28° |
| 2026-05-07 19:21 | 54.64402 | 48.59303 | 24588 ft | 376 kts | 27° |
| 2026-05-07 19:22 | 54.66651 | 48.61501 | 24036 ft | 364 kts | 27° |
| 2026-05-07 19:22 | 54.68794 | 48.63599 | 23646 ft | 349 kts | 27° |
| 2026-05-07 19:22 | 54.70874 | 48.65637 | 23285 ft | 338 kts | 28° |
| 2026-05-07 19:22 | 54.72899 | 48.67618 | 22895 ft | 331 kts | 28° |
| 2026-05-07 19:23 | 54.74892 | 48.69572 | 22551 ft | 324 kts | 28° |
| 2026-05-07 19:23 | 54.76820 | 48.71466 | 22287 ft | 318 kts | 28° |
| 2026-05-07 19:23 | 54.78724 | 48.73340 | 22007 ft | 312 kts | 28° |
| 2026-05-07 19:23 | 54.80567 | 48.75154 | 21942 ft | 302 kts | 28° |
| 2026-05-07 19:24 | 54.82401 | 48.76961 | 21942 ft | 302 kts | 28° |
| 2026-05-07 19:24 | 54.84226 | 48.78760 | 21943 ft | 303 kts | 28° |
| 2026-05-07 19:24 | 54.86064 | 48.80575 | 21950 ft | 303 kts | 28° |
| 2026-05-07 19:24 | 54.87893 | 48.82384 | 21950 ft | 303 kts | 28° |
| 2026-05-07 19:25 | 54.89728 | 48.84201 | 21951 ft | 304 kts | 28° |
| 2026-05-07 19:25 | 54.91548 | 48.86008 | 21946 ft | 304 kts | 28° |
| 2026-05-07 19:25 | 54.93404 | 48.87851 | 21948 ft | 305 kts | 28° |
| 2026-05-07 19:25 | 54.95236 | 48.89671 | 21952 ft | 305 kts | 28° |
| 2026-05-07 19:26 | 54.97153 | 48.91227 | 21904 ft | 302 kts | 12° |
| 2026-05-07 19:26 | 54.99181 | 48.91555 | 21643 ft | 297 kts | 357° |
| 2026-05-07 19:26 | 55.01239 | 48.91337 | 21233 ft | 297 kts | 354° |
| 2026-05-07 19:26 | 55.03310 | 48.90998 | 20852 ft | 296 kts | 354° |
| 2026-05-07 19:27 | 55.05340 | 48.90641 | 20506 ft | 293 kts | 353° |
| 2026-05-07 19:27 | 55.07344 | 48.90281 | 20164 ft | 291 kts | 353° |
| 2026-05-07 19:27 | 55.09354 | 48.89921 | 19801 ft | 289 kts | 353° |
| 2026-05-07 19:27 | 55.11358 | 48.89573 | 19446 ft | 287 kts | 353° |
| 2026-05-07 19:28 | 55.13346 | 48.89239 | 19093 ft | 286 kts | 353° |
| 2026-05-07 19:28 | 55.15292 | 48.88924 | 18951 ft | 282 kts | 353° |
| 2026-05-07 19:28 | 55.17268 | 48.88610 | 18951 ft | 285 kts | 353° |
| 2026-05-07 19:28 | 55.19244 | 48.88299 | 18949 ft | 286 kts | 353° |
| 2026-05-07 19:29 | 55.21246 | 48.87986 | 18949 ft | 286 kts | 353° |
| 2026-05-07 19:29 | 55.23194 | 48.87683 | 18948 ft | 285 kts | 354° |
| 2026-05-07 19:29 | 55.25182 | 48.87376 | 18953 ft | 285 kts | 353° |
| 2026-05-07 19:29 | 55.27162 | 48.87072 | 18950 ft | 285 kts | 354° |
| 2026-05-07 19:30 | 55.29120 | 48.86767 | 18950 ft | 284 kts | 353° |
| 2026-05-07 19:30 | 55.31094 | 48.86461 | 18943 ft | 284 kts | 353° |
| 2026-05-07 19:30 | 55.33071 | 48.86162 | 18938 ft | 284 kts | 354° |
| 2026-05-07 19:30 | 55.35034 | 48.85976 | 18931 ft | 286 kts | 0° |
| 2026-05-07 19:31 | 55.37003 | 48.86243 | 18939 ft | 286 kts | 4° |
| 2026-05-07 19:31 | 55.38981 | 48.86633 | 18750 ft | 283 kts | 4° |
| 2026-05-07 19:31 | 55.40932 | 48.87000 | 18340 ft | 284 kts | 4° |
| 2026-05-07 19:31 | 55.42883 | 48.87342 | 17914 ft | 282 kts | 3° |
| 2026-05-07 19:32 | 55.44833 | 48.87666 | 17430 ft | 282 kts | 3° |
| 2026-05-07 19:32 | 55.46754 | 48.87973 | 17024 ft | 279 kts | 3° |
| 2026-05-07 19:32 | 55.48668 | 48.88274 | 16581 ft | 277 kts | 2° |
| 2026-05-07 19:32 | 55.50586 | 48.88573 | 16124 ft | 276 kts | 2° |
| 2026-05-07 19:33 | 55.52483 | 48.88866 | 15685 ft | 274 kts | 2° |
| 2026-05-07 19:33 | 55.54377 | 48.89160 | 15272 ft | 272 kts | 2° |
| 2026-05-07 19:33 | 55.56248 | 48.89447 | 14850 ft | 271 kts | 2° |
| 2026-05-07 19:33 | 55.58111 | 48.89735 | 14403 ft | 270 kts | 2° |
| 2026-05-07 19:34 | 55.59968 | 48.90021 | 13964 ft | 268 kts | 2° |
| 2026-05-07 19:34 | 55.61822 | 48.90317 | 13526 ft | 267 kts | 3° |
| 2026-05-07 19:34 | 55.63654 | 48.90573 | 13112 ft | 264 kts | 357° |
| 2026-05-07 19:34 | 55.65395 | 48.89773 | 12618 ft | 259 kts | 323° |
| 2026-05-07 19:35 | 55.66577 | 48.87464 | 12208 ft | 255 kts | 296° |
| 2026-05-07 19:35 | 55.67036 | 48.84489 | 11767 ft | 254 kts | 271° |
| 2026-05-07 19:35 | 55.66799 | 48.81444 | 11342 ft | 254 kts | 256° |
| 2026-05-07 19:35 | 55.66007 | 48.78644 | 10856 ft | 258 kts | 229° |
| 2026-05-07 19:36 | 55.64605 | 48.76669 | 10418 ft | 259 kts | 215° |
| 2026-05-07 19:36 | 55.63105 | 48.74943 | 9995 ft | 259 kts | 215° |
| 2026-05-07 19:36 | 55.61600 | 48.73190 | 9586 ft | 258 kts | 215° |
| 2026-05-07 19:36 | 55.60080 | 48.71526 | 9150 ft | 258 kts | 204° |
| 2026-05-07 19:37 | 55.58338 | 48.71104 | 8724 ft | 261 kts | 169° |
| 2026-05-07 19:37 | 55.56687 | 48.72326 | 8413 ft | 258 kts | 141° |
| 2026-05-07 19:37 | 55.55544 | 48.74701 | 8078 ft | 254 kts | 114° |
| 2026-05-07 19:37 | 55.55139 | 48.77663 | 7951 ft | 249 kts | 87° |
| 2026-05-07 19:38 | 55.55505 | 48.80603 | 7933 ft | 247 kts | 61° |
| 2026-05-07 19:38 | 55.56548 | 48.82948 | 7942 ft | 245 kts | 36° |
| 2026-05-07 19:38 | 55.57947 | 48.84643 | 7956 ft | 244 kts | 32° |
| 2026-05-07 19:38 | 55.59388 | 48.86298 | 7953 ft | 244 kts | 32° |
| 2026-05-07 19:39 | 55.60806 | 48.87948 | 7956 ft | 244 kts | 32° |
| 2026-05-07 19:39 | 55.62203 | 48.89599 | 7951 ft | 243 kts | 33° |
| 2026-05-07 19:39 | 55.63617 | 48.91215 | 7883 ft | 240 kts | 25° |
| 2026-05-07 19:39 | 55.65223 | 48.91828 | 7510 ft | 239 kts | 354° |
| 2026-05-07 19:40 | 55.66787 | 48.91011 | 7148 ft | 239 kts | 329° |
| 2026-05-07 19:40 | 55.68018 | 48.89056 | 6965 ft | 238 kts | 305° |
| 2026-05-07 19:40 | 55.68662 | 48.86385 | 6953 ft | 242 kts | 280° |
| 2026-05-07 19:40 | 55.68598 | 48.83400 | 6948 ft | 244 kts | 254° |
| 2026-05-07 19:41 | 55.67798 | 48.80769 | 6949 ft | 247 kts | 228° |
| 2026-05-07 19:41 | 55.66445 | 48.78865 | 6952 ft | 249 kts | 215° |
| 2026-05-07 19:41 | 55.65013 | 48.77203 | 6949 ft | 249 kts | 214° |
| 2026-05-07 19:41 | 55.63555 | 48.75513 | 6947 ft | 249 kts | 215° |
| 2026-05-07 19:42 | 55.62123 | 48.73832 | 6960 ft | 250 kts | 215° |
| 2026-05-07 19:42 | 55.60671 | 48.72136 | 6949 ft | 251 kts | 211° |
| 2026-05-07 19:42 | 55.59032 | 48.71206 | 6937 ft | 252 kts | 181° |
| 2026-05-07 19:42 | 55.57317 | 48.71787 | 6949 ft | 252 kts | 153° |
| 2026-05-07 19:43 | 55.55958 | 48.73667 | 6951 ft | 251 kts | 126° |
| 2026-05-07 19:43 | 55.55223 | 48.76424 | 6950 ft | 247 kts | 98° |
| 2026-05-07 19:43 | 55.55260 | 48.79405 | 6941 ft | 244 kts | 72° |
| 2026-05-07 19:43 | 55.56013 | 48.82013 | 6948 ft | 242 kts | 47° |
| 2026-05-07 19:44 | 55.57311 | 48.83901 | 6955 ft | 241 kts | 32° |
| 2026-05-07 19:44 | 55.58704 | 48.85509 | 6954 ft | 241 kts | 32° |
| 2026-05-07 19:44 | 55.60101 | 48.87123 | 6947 ft | 241 kts | 32° |
| 2026-05-07 19:44 | 55.61488 | 48.88750 | 6922 ft | 238 kts | 32° |
| 2026-05-07 19:45 | 55.62859 | 48.90380 | 6642 ft | 237 kts | 32° |
| 2026-05-07 19:45 | 55.64220 | 48.91943 | 6289 ft | 238 kts | 37° |
| 2026-05-07 19:45 | 55.65218 | 48.94264 | 5980 ft | 238 kts | 70° |
| 2026-05-07 19:45 | 55.65345 | 48.97142 | 5947 ft | 242 kts | 102° |
| 2026-05-07 19:46 | 55.64685 | 48.99896 | 5948 ft | 244 kts | 116° |
| 2026-05-07 19:46 | 55.64164 | 49.02707 | 5936 ft | 241 kts | 90° |
| 2026-05-07 19:46 | 55.64506 | 49.05565 | 5956 ft | 238 kts | 59° |
| 2026-05-07 19:46 | 55.65615 | 49.07643 | 5944 ft | 236 kts | 28° |
| 2026-05-07 19:47 | 55.67185 | 49.08383 | 5954 ft | 236 kts | 356° |
| 2026-05-07 19:47 | 55.68733 | 49.07551 | 5961 ft | 237 kts | 325° |
| 2026-05-07 19:47 | 55.69879 | 49.05512 | 5978 ft | 237 kts | 308° |
| 2026-05-07 19:47 | 55.70845 | 49.03104 | 5977 ft | 237 kts | 304° |
| 2026-05-07 19:48 | 55.71757 | 49.00687 | 5990 ft | 237 kts | 304° |
| 2026-05-07 19:48 | 55.72667 | 48.98263 | 5978 ft | 238 kts | 304° |
| 2026-05-07 19:48 | 55.73581 | 48.95834 | 5971 ft | 238 kts | 304° |
| 2026-05-07 19:48 | 55.74497 | 48.93386 | 5972 ft | 239 kts | 304° |
| 2026-05-07 19:49 | 55.75417 | 48.90900 | 5955 ft | 239 kts | 304° |
| 2026-05-07 19:49 | 55.76326 | 48.88425 | 5954 ft | 239 kts | 303° |
| 2026-05-07 19:49 | 55.76958 | 48.85752 | 5954 ft | 240 kts | 277° |
| 2026-05-07 19:49 | 55.76745 | 48.82829 | 5961 ft | 242 kts | 246° |
| 2026-05-07 19:50 | 55.75697 | 48.80492 | 5962 ft | 246 kts | 215° |
| 2026-05-07 19:50 | 55.74122 | 48.79380 | 5969 ft | 247 kts | 191° |
| 2026-05-07 19:50 | 55.72436 | 48.79005 | 5967 ft | 247 kts | 185° |
| 2026-05-07 19:50 | 55.70704 | 48.78813 | 5962 ft | 247 kts | 179° |
| 2026-05-07 19:51 | 55.69102 | 48.79637 | 5947 ft | 247 kts | 142° |
| 2026-05-07 19:51 | 55.68092 | 48.81981 | 5811 ft | 241 kts | 106° |
| 2026-05-07 19:51 | 55.67973 | 48.84889 | 5424 ft | 237 kts | 77° |
| 2026-05-07 19:51 | 55.68514 | 48.87639 | 4909 ft | 236 kts | 67° |
| 2026-05-07 19:52 | 55.69127 | 48.90262 | 4398 ft | 234 kts | 68° |
| 2026-05-07 19:52 | 55.69701 | 48.92883 | 4075 ft | 222 kts | 70° |
| 2026-05-07 19:52 | 55.70217 | 48.95389 | 3740 ft | 215 kts | 71° |
| 2026-05-07 19:52 | 55.70721 | 48.97921 | 3171 ft | 218 kts | 72° |
| 2026-05-07 19:53 | 55.71003 | 49.00500 | 2732 ft | 212 kts | 100° |
| 2026-05-07 19:53 | 55.70461 | 49.02778 | 2692 ft | 203 kts | 122° |
| 2026-05-07 19:53 | 55.69657 | 49.04850 | 2681 ft | 203 kts | 125° |
| 2026-05-07 19:53 | 55.68826 | 49.06868 | 2670 ft | 203 kts | 125° |
| 2026-05-07 19:54 | 55.68021 | 49.08867 | 2570 ft | 198 kts | 124° |
| 2026-05-07 19:54 | 55.67262 | 49.10796 | 2364 ft | 183 kts | 123° |
| 2026-05-07 19:54 | 55.66569 | 49.12579 | 2119 ft | 170 kts | 123° |
| 2026-05-07 19:54 | 55.65931 | 49.14219 | 1876 ft | 156 kts | 122° |
| 2026-05-07 19:55 | 55.65344 | 49.15728 | 1641 ft | 142 kts | 121° |
| 2026-05-07 19:55 | 55.64796 | 49.17137 | 1458 ft | 138 kts | 122° |
| 2026-05-07 19:55 | 55.64259 | 49.18538 | 1269 ft | 137 kts | 121° |
| 2026-05-07 19:55 | 55.63717 | 49.19929 | 1108 ft | 137 kts | 123° |
| 2026-05-07 19:56 | 55.63165 | 49.21326 | 934 ft | 137 kts | 123° |
| 2026-05-07 19:56 | 55.62628 | 49.22707 | 748 ft | 137 kts | 122° |
| 2026-05-07 19:56 | 55.62090 | 49.24103 | 573 ft | 138 kts | 123° |
| 2026-05-07 19:56 | 55.61541 | 49.25514 | 420 ft | 137 kts | 123° |
| 2026-05-07 19:57 | 55.61082 | 49.26704 | 419 ft | 92 kts | 124° |
| 2026-05-07 19:57 | 55.60783 | 49.27476 | 419 ft | 67 kts | 124° |
| 2026-05-07 19:57 | 55.60542 | 49.28098 | 419 ft | 57 kts | 124° |
| 2026-05-07 19:57 | 55.60388 | 49.28502 | 419 ft | 14 kts | 105° |
| 2026-05-07 19:58 | 55.60440 | 49.28637 | 419 ft | 14 kts | 35° |
| 2026-05-07 19:58 | 55.60480 | 49.28686 | 419 ft | 0 kts | 34° |
| 2026-05-07 19:59 | 55.60481 | 49.28688 | 419 ft | 0 kts | 34° |
| 2026-05-07 19:59 | 55.60490 | 49.28698 | 419 ft | 2 kts | 34° |
| 2026-05-07 20:00 | 55.60506 | 49.28717 | 419 ft | 3 kts | 34° |
| 2026-05-07 20:00 | 55.60522 | 49.28755 | 419 ft | 5 kts | 76° |
| 2026-05-07 20:00 | 55.60510 | 49.28836 | 419 ft | 8 kts | 121° |
| 2026-05-07 20:00 | 55.60470 | 49.28938 | 419 ft | 11 kts | 124° |
| 2026-05-07 20:01 | 55.60419 | 49.29071 | 419 ft | 14 kts | 123° |
| 2026-05-07 20:01 | 55.60358 | 49.29227 | 419 ft | 16 kts | 124° |
| 2026-05-07 20:01 | 55.60290 | 49.29402 | 419 ft | 18 kts | 123° |
| 2026-05-07 20:01 | 55.60215 | 49.29597 | 419 ft | 20 kts | 124° |
| 2026-05-07 20:02 | 55.60139 | 49.29795 | 419 ft | 10 kts | 124° |
| 2026-05-07 20:02 | 55.60114 | 49.29915 | 419 ft | 11 kts | 75° |
| 2026-05-07 20:02 | 55.60179 | 49.29956 | 419 ft | 12 kts | 338° |
| 2026-05-07 20:02 | 55.60259 | 49.29896 | 419 ft | 12 kts | 342° |
| 2026-05-07 20:03 | 55.60348 | 49.29891 | 419 ft | 13 kts | 16° |
| 2026-05-07 20:03 | 55.60430 | 49.29973 | 419 ft | 13 kts | 35° |
| 2026-05-07 20:03 | 55.60507 | 49.30065 | 419 ft | 9 kts | 33° |
| 2026-05-07 20:03 | 55.60566 | 49.30098 | 419 ft | 9 kts | 334° |
| 2026-05-07 20:04 | 55.60611 | 49.30001 | 419 ft | 10 kts | 304° |
| 2026-05-07 20:04 | 55.60633 | 49.29945 | 419 ft | 0 kts | 304° |
| 2026-05-07 20:04 | 55.60638 | 49.29933 | 419 ft | 1 kts | 317° |
| 2026-05-07 20:04 | 55.60654 | 49.29922 | 419 ft | 3 kts | 354° |
| 2026-05-07 20:05 | 55.60680 | 49.29937 | 419 ft | 4 kts | 31° |
| 2026-05-07 20:05 | 55.60710 | 49.29971 | 419 ft | 5 kts | 34° |
| 2026-05-07 20:05 | 55.60711 | 49.29973 | 419 ft | 0 kts | 34° |